sensor_id;sensor_type;location;lat;lon;timestamp;temperature;humidity
25192;DHT22;13143;50.924;5.320;2023-04-06T00:00:18;9.00;99.90
25192;DHT22;13143;50.924;5.320;2023-04-06T00:02:44;9.00;99.90
25192;DHT22;13143;50.924;5.320;2023-04-06T00:05:09;9.00;99.90
25192;DHT22;13143;50.924;5.320;2023-04-06T00:07:35;9.00;99.90
25192;DHT22;13143;50.924;5.320;2023-04-06T00:10:01;9.00;99.90
25192;DHT22;13143;50.924;5.320;2023-04-06T00:12:26;8.90;99.90
25192;DHT22;13143;50.924;5.320;2023-04-06T00:14:52;8.90;99.90
25192;DHT22;13143;50.924;5.320;2023-04-06T00:17:17;8.90;99.90
25192;DHT22;13143;50.924;5.320;2023-04-06T00:19:43;8.90;99.90
25192;DHT22;13143;50.924;5.320;2023-04-06T00:22:08;8.90;99.90
25192;DHT22;13143;50.924;5.320;2023-04-06T00:24:34;8.80;99.90
25192;DHT22;13143;50.924;5.320;2023-04-06T00:27:00;8.80;99.90
25192;DHT22;13143;50.924;5.320;2023-04-06T00:29:26;8.80;99.90
25192;DHT22;13143;50.924;5.320;2023-04-06T00:31:52;8.80;99.90
25192;DHT22;13143;50.924;5.320;2023-04-06T00:34:17;8.80;99.90
25192;DHT22;13143;50.924;5.320;2023-04-06T00:36:43;8.70;99.90
25192;DHT22;13143;50.924;5.320;2023-04-06T00:39:09;8.70;99.90
25192;DHT22;13143;50.924;5.320;2023-04-06T00:41:35;8.70;99.90
25192;DHT22;13143;50.924;5.320;2023-04-06T00:44:00;8.70;99.90
25192;DHT22;13143;50.924;5.320;2023-04-06T00:46:26;8.70;99.90
25192;DHT22;13143;50.924;5.320;2023-04-06T00:48:51;8.70;99.90
25192;DHT22;13143;50.924;5.320;2023-04-06T00:51:17;8.60;99.90
25192;DHT22;13143;50.924;5.320;2023-04-06T00:53:42;8.60;99.90
25192;DHT22;13143;50.924;5.320;2023-04-06T00:56:08;8.60;99.90
25192;DHT22;13143;50.924;5.320;2023-04-06T00:58:35;8.60;99.90
25192;DHT22;13143;50.924;5.320;2023-04-06T01:01:04;8.50;99.90
25192;DHT22;13143;50.924;5.320;2023-04-06T01:03:29;8.50;99.90
25192;DHT22;13143;50.924;5.320;2023-04-06T01:05:55;8.50;99.90
25192;DHT22;13143;50.924;5.320;2023-04-06T01:08:23;8.50;99.90
25192;DHT22;13143;50.924;5.320;2023-04-06T01:10:49;8.50;99.90
25192;DHT22;13143;50.924;5.320;2023-04-06T01:13:15;8.50;99.90
25192;DHT22;13143;50.924;5.320;2023-04-06T01:15:41;8.40;99.90
25192;DHT22;13143;50.924;5.320;2023-04-06T01:18:10;8.40;99.90
25192;DHT22;13143;50.924;5.320;2023-04-06T01:20:36;8.40;99.90
25192;DHT22;13143;50.924;5.320;2023-04-06T01:23:01;8.40;99.90
25192;DHT22;13143;50.924;5.320;2023-04-06T01:25:27;8.30;99.90
25192;DHT22;13143;50.924;5.320;2023-04-06T01:27:52;8.30;99.90
25192;DHT22;13143;50.924;5.320;2023-04-06T01:30:18;8.30;99.90
25192;DHT22;13143;50.924;5.320;2023-04-06T01:32:44;8.30;99.90
25192;DHT22;13143;50.924;5.320;2023-04-06T01:35:10;8.30;99.90
25192;DHT22;13143;50.924;5.320;2023-04-06T01:37:36;8.20;99.90
25192;DHT22;13143;50.924;5.320;2023-04-06T01:40:02;8.20;99.90
25192;DHT22;13143;50.924;5.320;2023-04-06T01:42:28;8.20;99.90
25192;DHT22;13143;50.924;5.320;2023-04-06T01:44:53;8.20;99.90
25192;DHT22;13143;50.924;5.320;2023-04-06T01:47:19;8.20;99.90
25192;DHT22;13143;50.924;5.320;2023-04-06T01:49:44;8.10;99.90
25192;DHT22;13143;50.924;5.320;2023-04-06T01:52:10;8.10;99.90
25192;DHT22;13143;50.924;5.320;2023-04-06T01:54:35;8.10;99.90
25192;DHT22;13143;50.924;5.320;2023-04-06T01:57:03;8.10;99.90
25192;DHT22;13143;50.924;5.320;2023-04-06T01:59:28;8.00;99.90
25192;DHT22;13143;50.924;5.320;2023-04-06T02:01:54;8.00;99.90
25192;DHT22;13143;50.924;5.320;2023-04-06T02:04:20;8.00;99.90
25192;DHT22;13143;50.924;5.320;2023-04-06T02:06:46;8.00;99.90
25192;DHT22;13143;50.924;5.320;2023-04-06T02:09:12;8.00;99.90
25192;DHT22;13143;50.924;5.320;2023-04-06T02:11:37;8.00;99.90
25192;DHT22;13143;50.924;5.320;2023-04-06T02:14:03;7.90;99.90
25192;DHT22;13143;50.924;5.320;2023-04-06T02:16:28;7.90;99.90
25192;DHT22;13143;50.924;5.320;2023-04-06T02:18:54;7.90;99.90
25192;DHT22;13143;50.924;5.320;2023-04-06T02:21:19;7.90;99.90
25192;DHT22;13143;50.924;5.320;2023-04-06T02:23:48;7.90;99.90
25192;DHT22;13143;50.924;5.320;2023-04-06T02:26:14;7.90;99.90
25192;DHT22;13143;50.924;5.320;2023-04-06T02:28:40;7.90;99.90
25192;DHT22;13143;50.924;5.320;2023-04-06T02:31:05;7.80;99.90
25192;DHT22;13143;50.924;5.320;2023-04-06T02:33:31;7.80;99.90
25192;DHT22;13143;50.924;5.320;2023-04-06T02:35:57;7.80;99.90
25192;DHT22;13143;50.924;5.320;2023-04-06T02:38:22;7.80;99.90
25192;DHT22;13143;50.924;5.320;2023-04-06T02:40:48;7.80;99.90
25192;DHT22;13143;50.924;5.320;2023-04-06T02:43:13;7.80;99.90
25192;DHT22;13143;50.924;5.320;2023-04-06T02:45:39;7.80;99.90
25192;DHT22;13143;50.924;5.320;2023-04-06T02:48:05;7.70;99.90
25192;DHT22;13143;50.924;5.320;2023-04-06T02:50:30;7.70;99.90
25192;DHT22;13143;50.924;5.320;2023-04-06T02:52:56;7.70;99.90
25192;DHT22;13143;50.924;5.320;2023-04-06T02:55:21;7.70;99.90
25192;DHT22;13143;50.924;5.320;2023-04-06T02:57:47;7.70;99.90
25192;DHT22;13143;50.924;5.320;2023-04-06T03:00:12;7.70;99.90
25192;DHT22;13143;50.924;5.320;2023-04-06T03:02:38;7.70;99.90
25192;DHT22;13143;50.924;5.320;2023-04-06T03:05:04;7.70;99.90
25192;DHT22;13143;50.924;5.320;2023-04-06T03:07:29;7.70;99.90
25192;DHT22;13143;50.924;5.320;2023-04-06T03:09:55;7.60;99.90
25192;DHT22;13143;50.924;5.320;2023-04-06T03:12:20;7.60;99.90
25192;DHT22;13143;50.924;5.320;2023-04-06T03:14:46;7.60;99.90
25192;DHT22;13143;50.924;5.320;2023-04-06T03:17:11;7.60;99.90
25192;DHT22;13143;50.924;5.320;2023-04-06T03:19:37;7.60;99.90
25192;DHT22;13143;50.924;5.320;2023-04-06T03:22:02;7.60;99.90
25192;DHT22;13143;50.924;5.320;2023-04-06T03:24:28;7.60;99.90
25192;DHT22;13143;50.924;5.320;2023-04-06T03:26:54;7.60;99.90
25192;DHT22;13143;50.924;5.320;2023-04-06T03:29:20;7.60;99.90
25192;DHT22;13143;50.924;5.320;2023-04-06T03:31:45;7.60;99.90
25192;DHT22;13143;50.924;5.320;2023-04-06T03:34:11;7.60;99.90
25192;DHT22;13143;50.924;5.320;2023-04-06T03:36:36;7.60;99.90
25192;DHT22;13143;50.924;5.320;2023-04-06T03:39:02;7.60;99.90
25192;DHT22;13143;50.924;5.320;2023-04-06T03:41:28;7.60;99.90
25192;DHT22;13143;50.924;5.320;2023-04-06T03:43:53;7.50;99.90
25192;DHT22;13143;50.924;5.320;2023-04-06T03:46:19;7.50;99.90
25192;DHT22;13143;50.924;5.320;2023-04-06T03:48:45;7.50;99.90
25192;DHT22;13143;50.924;5.320;2023-04-06T03:51:10;7.50;99.90
25192;DHT22;13143;50.924;5.320;2023-04-06T03:53:36;7.50;99.90
25192;DHT22;13143;50.924;5.320;2023-04-06T03:56:02;7.50;99.90
25192;DHT22;13143;50.924;5.320;2023-04-06T03:58:28;7.50;99.90
25192;DHT22;13143;50.924;5.320;2023-04-06T04:00:53;7.50;99.90
25192;DHT22;13143;50.924;5.320;2023-04-06T04:03:19;7.50;99.90
25192;DHT22;13143;50.924;5.320;2023-04-06T04:05:44;7.50;99.90
25192;DHT22;13143;50.924;5.320;2023-04-06T04:08:10;7.50;99.90
25192;DHT22;13143;50.924;5.320;2023-04-06T04:10:35;7.40;99.90
25192;DHT22;13143;50.924;5.320;2023-04-06T04:13:01;7.50;99.90
25192;DHT22;13143;50.924;5.320;2023-04-06T04:15:26;7.40;99.90
25192;DHT22;13143;50.924;5.320;2023-04-06T04:17:52;7.40;99.90
25192;DHT22;13143;50.924;5.320;2023-04-06T04:20:17;7.40;99.90
25192;DHT22;13143;50.924;5.320;2023-04-06T04:22:43;7.40;99.90
25192;DHT22;13143;50.924;5.320;2023-04-06T04:25:09;7.40;99.90
25192;DHT22;13143;50.924;5.320;2023-04-06T04:27:34;7.40;99.90
25192;DHT22;13143;50.924;5.320;2023-04-06T04:30:00;7.40;99.90
25192;DHT22;13143;50.924;5.320;2023-04-06T04:32:26;7.40;99.90
25192;DHT22;13143;50.924;5.320;2023-04-06T04:34:53;7.40;99.90
25192;DHT22;13143;50.924;5.320;2023-04-06T04:37:18;7.40;99.90
25192;DHT22;13143;50.924;5.320;2023-04-06T04:39:44;7.40;99.90
25192;DHT22;13143;50.924;5.320;2023-04-06T04:42:10;7.40;99.90
25192;DHT22;13143;50.924;5.320;2023-04-06T04:44:36;7.40;99.90
25192;DHT22;13143;50.924;5.320;2023-04-06T04:47:01;7.40;99.90
25192;DHT22;13143;50.924;5.320;2023-04-06T04:49:27;7.40;99.90
25192;DHT22;13143;50.924;5.320;2023-04-06T04:51:52;7.30;99.90
25192;DHT22;13143;50.924;5.320;2023-04-06T04:54:18;7.30;99.90
25192;DHT22;13143;50.924;5.320;2023-04-06T04:56:44;7.30;99.90
25192;DHT22;13143;50.924;5.320;2023-04-06T04:59:10;7.30;99.90
25192;DHT22;13143;50.924;5.320;2023-04-06T05:01:36;7.30;99.90
25192;DHT22;13143;50.924;5.320;2023-04-06T05:04:01;7.30;99.90
25192;DHT22;13143;50.924;5.320;2023-04-06T05:06:27;7.30;99.90
25192;DHT22;13143;50.924;5.320;2023-04-06T05:08:52;7.30;99.90
25192;DHT22;13143;50.924;5.320;2023-04-06T05:11:18;7.20;99.90
25192;DHT22;13143;50.924;5.320;2023-04-06T05:13:44;7.20;99.90
25192;DHT22;13143;50.924;5.320;2023-04-06T05:16:09;7.30;99.90
25192;DHT22;13143;50.924;5.320;2023-04-06T05:18:35;7.20;99.90
25192;DHT22;13143;50.924;5.320;2023-04-06T05:21:00;7.20;99.90
25192;DHT22;13143;50.924;5.320;2023-04-06T05:23:26;7.20;99.90
25192;DHT22;13143;50.924;5.320;2023-04-06T05:25:52;7.20;99.90
25192;DHT22;13143;50.924;5.320;2023-04-06T05:28:17;7.20;99.90
25192;DHT22;13143;50.924;5.320;2023-04-06T05:30:43;7.20;99.90
25192;DHT22;13143;50.924;5.320;2023-04-06T05:33:09;7.20;99.90
25192;DHT22;13143;50.924;5.320;2023-04-06T05:35:35;7.20;99.90
25192;DHT22;13143;50.924;5.320;2023-04-06T05:38:01;7.20;99.90
25192;DHT22;13143;50.924;5.320;2023-04-06T05:40:26;7.20;99.90
25192;DHT22;13143;50.924;5.320;2023-04-06T05:42:52;7.20;99.90
25192;DHT22;13143;50.924;5.320;2023-04-06T05:45:17;7.20;99.90
25192;DHT22;13143;50.924;5.320;2023-04-06T05:47:44;7.20;99.90
25192;DHT22;13143;50.924;5.320;2023-04-06T05:50:10;7.20;99.90
25192;DHT22;13143;50.924;5.320;2023-04-06T05:52:36;7.20;99.90
25192;DHT22;13143;50.924;5.320;2023-04-06T05:55:02;7.20;99.90
25192;DHT22;13143;50.924;5.320;2023-04-06T05:57:27;7.20;99.90
25192;DHT22;13143;50.924;5.320;2023-04-06T05:59:53;7.20;99.90
25192;DHT22;13143;50.924;5.320;2023-04-06T06:02:18;7.10;99.90
25192;DHT22;13143;50.924;5.320;2023-04-06T06:04:44;7.10;99.90
25192;DHT22;13143;50.924;5.320;2023-04-06T06:07:09;7.10;99.90
25192;DHT22;13143;50.924;5.320;2023-04-06T06:09:35;7.10;99.90
25192;DHT22;13143;50.924;5.320;2023-04-06T06:12:00;7.20;99.90
25192;DHT22;13143;50.924;5.320;2023-04-06T06:14:26;7.10;99.90
25192;DHT22;13143;50.924;5.320;2023-04-06T06:16:53;7.10;99.90
25192;DHT22;13143;50.924;5.320;2023-04-06T06:19:19;7.20;99.90
25192;DHT22;13143;50.924;5.320;2023-04-06T06:21:45;7.10;99.90
25192;DHT22;13143;50.924;5.320;2023-04-06T06:24:10;7.10;99.90
25192;DHT22;13143;50.924;5.320;2023-04-06T06:26:36;7.20;99.90
25192;DHT22;13143;50.924;5.320;2023-04-06T06:29:02;7.20;99.90
25192;DHT22;13143;50.924;5.320;2023-04-06T06:31:30;7.20;99.90
25192;DHT22;13143;50.924;5.320;2023-04-06T06:33:55;7.20;99.90
25192;DHT22;13143;50.924;5.320;2023-04-06T06:36:21;7.20;99.90
25192;DHT22;13143;50.924;5.320;2023-04-06T06:38:46;7.20;99.90
25192;DHT22;13143;50.924;5.320;2023-04-06T06:41:12;7.20;99.90
25192;DHT22;13143;50.924;5.320;2023-04-06T06:43:38;7.20;99.90
25192;DHT22;13143;50.924;5.320;2023-04-06T06:46:04;7.20;99.90
25192;DHT22;13143;50.924;5.320;2023-04-06T06:48:29;7.20;99.90
25192;DHT22;13143;50.924;5.320;2023-04-06T06:50:56;7.20;99.90
25192;DHT22;13143;50.924;5.320;2023-04-06T06:53:22;7.20;99.90
25192;DHT22;13143;50.924;5.320;2023-04-06T06:55:47;7.20;99.90
25192;DHT22;13143;50.924;5.320;2023-04-06T06:58:17;7.20;99.90
25192;DHT22;13143;50.924;5.320;2023-04-06T07:00:43;7.20;99.90
25192;DHT22;13143;50.924;5.320;2023-04-06T07:03:08;7.20;99.90
25192;DHT22;13143;50.924;5.320;2023-04-06T07:05:34;7.20;99.90
25192;DHT22;13143;50.924;5.320;2023-04-06T07:07:59;7.30;99.90
25192;DHT22;13143;50.924;5.320;2023-04-06T07:10:25;7.30;99.90
25192;DHT22;13143;50.924;5.320;2023-04-06T07:12:51;7.30;99.90
25192;DHT22;13143;50.924;5.320;2023-04-06T07:15:17;7.30;99.90
25192;DHT22;13143;50.924;5.320;2023-04-06T07:17:42;7.30;99.90
25192;DHT22;13143;50.924;5.320;2023-04-06T07:20:10;7.30;99.90
25192;DHT22;13143;50.924;5.320;2023-04-06T07:22:37;7.30;99.90
25192;DHT22;13143;50.924;5.320;2023-04-06T07:25:02;7.30;99.90
25192;DHT22;13143;50.924;5.320;2023-04-06T07:27:28;7.40;99.90
25192;DHT22;13143;50.924;5.320;2023-04-06T07:29:54;7.40;99.90
25192;DHT22;13143;50.924;5.320;2023-04-06T07:32:19;7.40;99.90
25192;DHT22;13143;50.924;5.320;2023-04-06T07:34:45;7.40;99.90
25192;DHT22;13143;50.924;5.320;2023-04-06T07:37:12;7.40;99.90
25192;DHT22;13143;50.924;5.320;2023-04-06T07:39:37;7.50;99.90
25192;DHT22;13143;50.924;5.320;2023-04-06T07:42:03;7.50;99.90
25192;DHT22;13143;50.924;5.320;2023-04-06T07:44:28;7.50;99.90
25192;DHT22;13143;50.924;5.320;2023-04-06T07:46:54;7.60;99.90
25192;DHT22;13143;50.924;5.320;2023-04-06T07:49:20;7.60;99.90
25192;DHT22;13143;50.924;5.320;2023-04-06T07:51:46;7.60;99.90
25192;DHT22;13143;50.924;5.320;2023-04-06T07:54:11;7.60;99.90
25192;DHT22;13143;50.924;5.320;2023-04-06T07:56:37;7.60;99.90
25192;DHT22;13143;50.924;5.320;2023-04-06T07:59:02;7.70;99.90
25192;DHT22;13143;50.924;5.320;2023-04-06T08:01:28;7.70;99.90
25192;DHT22;13143;50.924;5.320;2023-04-06T08:03:55;7.70;99.90
25192;DHT22;13143;50.924;5.320;2023-04-06T08:06:20;7.70;99.90
25192;DHT22;13143;50.924;5.320;2023-04-06T08:08:46;7.70;99.90
25192;DHT22;13143;50.924;5.320;2023-04-06T08:11:11;7.80;99.90
25192;DHT22;13143;50.924;5.320;2023-04-06T08:13:37;7.80;99.90
25192;DHT22;13143;50.924;5.320;2023-04-06T08:16:03;7.90;99.90
25192;DHT22;13143;50.924;5.320;2023-04-06T08:18:28;7.90;99.90
25192;DHT22;13143;50.924;5.320;2023-04-06T08:20:55;7.90;99.90
25192;DHT22;13143;50.924;5.320;2023-04-06T08:23:21;7.90;99.90
25192;DHT22;13143;50.924;5.320;2023-04-06T08:25:46;8.00;99.90
25192;DHT22;13143;50.924;5.320;2023-04-06T08:28:12;8.00;99.90
25192;DHT22;13143;50.924;5.320;2023-04-06T08:30:41;8.00;99.90
25192;DHT22;13143;50.924;5.320;2023-04-06T08:33:06;8.00;99.90
25192;DHT22;13143;50.924;5.320;2023-04-06T08:35:32;8.10;99.90
25192;DHT22;13143;50.924;5.320;2023-04-06T08:37:57;8.10;99.90
25192;DHT22;13143;50.924;5.320;2023-04-06T08:40:23;8.20;99.90
25192;DHT22;13143;50.924;5.320;2023-04-06T08:42:58;8.20;99.90
25192;DHT22;13143;50.924;5.320;2023-04-06T08:45:25;8.20;99.90
25192;DHT22;13143;50.924;5.320;2023-04-06T08:47:51;8.20;99.90
25192;DHT22;13143;50.924;5.320;2023-04-06T08:50:17;8.30;99.90
25192;DHT22;13143;50.924;5.320;2023-04-06T08:52:43;8.30;99.90
25192;DHT22;13143;50.924;5.320;2023-04-06T08:55:09;8.30;99.90
25192;DHT22;13143;50.924;5.320;2023-04-06T08:57:35;8.30;99.90
25192;DHT22;13143;50.924;5.320;2023-04-06T09:00:01;8.40;99.90
25192;DHT22;13143;50.924;5.320;2023-04-06T09:02:27;8.40;99.90
25192;DHT22;13143;50.924;5.320;2023-04-06T09:04:53;8.40;99.90
25192;DHT22;13143;50.924;5.320;2023-04-06T09:07:19;8.50;99.90
25192;DHT22;13143;50.924;5.320;2023-04-06T09:09:44;8.50;99.90
25192;DHT22;13143;50.924;5.320;2023-04-06T09:12:25;8.60;99.90
25192;DHT22;13143;50.924;5.320;2023-04-06T09:14:51;8.60;99.90
25192;DHT22;13143;50.924;5.320;2023-04-06T09:17:27;8.60;99.90
25192;DHT22;13143;50.924;5.320;2023-04-06T09:19:54;8.60;99.90
25192;DHT22;13143;50.924;5.320;2023-04-06T09:22:20;8.70;99.90
25192;DHT22;13143;50.924;5.320;2023-04-06T09:24:47;8.70;99.90
25192;DHT22;13143;50.924;5.320;2023-04-06T09:27:13;8.70;99.90
25192;DHT22;13143;50.924;5.320;2023-04-06T09:29:39;8.70;99.90
25192;DHT22;13143;50.924;5.320;2023-04-06T09:32:05;8.80;99.90
25192;DHT22;13143;50.924;5.320;2023-04-06T09:34:31;8.80;99.90
25192;DHT22;13143;50.924;5.320;2023-04-06T09:36:57;8.90;99.90
25192;DHT22;13143;50.924;5.320;2023-04-06T09:39:23;8.90;99.90
25192;DHT22;13143;50.924;5.320;2023-04-06T09:41:52;8.90;99.90
25192;DHT22;13143;50.924;5.320;2023-04-06T09:44:19;9.00;99.90
25192;DHT22;13143;50.924;5.320;2023-04-06T09:46:46;9.00;99.90
25192;DHT22;13143;50.924;5.320;2023-04-06T09:49:12;9.00;99.90
25192;DHT22;13143;50.924;5.320;2023-04-06T09:51:44;9.10;99.90
25192;DHT22;13143;50.924;5.320;2023-04-06T09:54:11;9.10;99.90
25192;DHT22;13143;50.924;5.320;2023-04-06T09:56:37;9.10;99.90
25192;DHT22;13143;50.924;5.320;2023-04-06T09:59:06;9.10;99.90
25192;DHT22;13143;50.924;5.320;2023-04-06T10:01:33;9.20;99.90
25192;DHT22;13143;50.924;5.320;2023-04-06T10:04:13;9.20;99.90
25192;DHT22;13143;50.924;5.320;2023-04-06T10:06:43;9.20;99.90
25192;DHT22;13143;50.924;5.320;2023-04-06T10:09:09;9.20;99.90
25192;DHT22;13143;50.924;5.320;2023-04-06T10:11:35;9.20;99.90
25192;DHT22;13143;50.924;5.320;2023-04-06T10:14:01;9.20;99.90
25192;DHT22;13143;50.924;5.320;2023-04-06T10:16:26;9.20;99.90
25192;DHT22;13143;50.924;5.320;2023-04-06T10:18:56;9.30;99.90
25192;DHT22;13143;50.924;5.320;2023-04-06T10:21:24;9.30;99.90
25192;DHT22;13143;50.924;5.320;2023-04-06T10:23:52;9.30;99.90
25192;DHT22;13143;50.924;5.320;2023-04-06T10:26:21;9.30;99.90
25192;DHT22;13143;50.924;5.320;2023-04-06T10:28:47;9.30;99.90
25192;DHT22;13143;50.924;5.320;2023-04-06T10:31:13;9.30;99.90
25192;DHT22;13143;50.924;5.320;2023-04-06T10:33:39;9.40;99.90
25192;DHT22;13143;50.924;5.320;2023-04-06T10:38:37;9.40;99.90
25192;DHT22;13143;50.924;5.320;2023-04-06T10:41:04;9.40;99.90
25192;DHT22;13143;50.924;5.320;2023-04-06T10:43:33;9.40;99.90
25192;DHT22;13143;50.924;5.320;2023-04-06T10:46:00;9.40;99.90
25192;DHT22;13143;50.924;5.320;2023-04-06T10:48:36;9.40;99.90
25192;DHT22;13143;50.924;5.320;2023-04-06T10:51:01;9.40;99.90
25192;DHT22;13143;50.924;5.320;2023-04-06T10:53:32;9.40;99.90
25192;DHT22;13143;50.924;5.320;2023-04-06T10:55:58;9.40;99.90
25192;DHT22;13143;50.924;5.320;2023-04-06T10:58:25;9.40;99.90
25192;DHT22;13143;50.924;5.320;2023-04-06T11:00:51;9.40;99.90
25192;DHT22;13143;50.924;5.320;2023-04-06T11:03:17;9.40;99.90
25192;DHT22;13143;50.924;5.320;2023-04-06T11:05:43;9.50;99.90
25192;DHT22;13143;50.924;5.320;2023-04-06T11:08:09;9.40;99.90
25192;DHT22;13143;50.924;5.320;2023-04-06T11:10:34;9.40;99.90
25192;DHT22;13143;50.924;5.320;2023-04-06T11:13:00;9.40;99.90
25192;DHT22;13143;50.924;5.320;2023-04-06T11:15:25;9.40;99.90
25192;DHT22;13143;50.924;5.320;2023-04-06T11:17:51;9.40;99.90
25192;DHT22;13143;50.924;5.320;2023-04-06T11:20:17;9.50;99.90
25192;DHT22;13143;50.924;5.320;2023-04-06T11:22:51;9.50;99.90
25192;DHT22;13143;50.924;5.320;2023-04-06T11:25:17;9.40;99.90
25192;DHT22;13143;50.924;5.320;2023-04-06T11:27:42;9.40;99.90
25192;DHT22;13143;50.924;5.320;2023-04-06T11:30:08;9.40;99.90
25192;DHT22;13143;50.924;5.320;2023-04-06T11:32:41;9.50;99.90
25192;DHT22;13143;50.924;5.320;2023-04-06T11:35:10;9.50;99.90
25192;DHT22;13143;50.924;5.320;2023-04-06T11:37:36;9.50;99.90
25192;DHT22;13143;50.924;5.320;2023-04-06T11:40:02;9.50;99.90
25192;DHT22;13143;50.924;5.320;2023-04-06T11:42:28;9.50;99.90
25192;DHT22;13143;50.924;5.320;2023-04-06T11:44:55;9.50;99.90
25192;DHT22;13143;50.924;5.320;2023-04-06T11:47:26;9.50;99.90
25192;DHT22;13143;50.924;5.320;2023-04-06T11:49:52;9.50;99.90
25192;DHT22;13143;50.924;5.320;2023-04-06T11:52:19;9.60;99.90
25192;DHT22;13143;50.924;5.320;2023-04-06T11:54:45;9.60;99.90
25192;DHT22;13143;50.924;5.320;2023-04-06T11:57:11;9.60;99.90
25192;DHT22;13143;50.924;5.320;2023-04-06T11:59:36;9.60;99.90
25192;DHT22;13143;50.924;5.320;2023-04-06T12:02:02;9.60;99.90
25192;DHT22;13143;50.924;5.320;2023-04-06T12:04:28;9.60;99.90
25192;DHT22;13143;50.924;5.320;2023-04-06T12:06:54;9.50;99.90
25192;DHT22;13143;50.924;5.320;2023-04-06T12:09:19;9.60;99.90
25192;DHT22;13143;50.924;5.320;2023-04-06T12:11:45;9.60;99.90
25192;DHT22;13143;50.924;5.320;2023-04-06T12:14:11;9.60;99.90
25192;DHT22;13143;50.924;5.320;2023-04-06T12:16:37;9.60;99.90
25192;DHT22;13143;50.924;5.320;2023-04-06T12:19:02;9.60;99.90
25192;DHT22;13143;50.924;5.320;2023-04-06T12:21:28;9.60;99.90
25192;DHT22;13143;50.924;5.320;2023-04-06T12:23:54;9.60;99.90
25192;DHT22;13143;50.924;5.320;2023-04-06T12:26:20;9.60;99.90
25192;DHT22;13143;50.924;5.320;2023-04-06T12:28:46;9.60;99.90
25192;DHT22;13143;50.924;5.320;2023-04-06T12:31:15;9.60;99.90
25192;DHT22;13143;50.924;5.320;2023-04-06T12:33:41;9.60;99.90
25192;DHT22;13143;50.924;5.320;2023-04-06T12:36:17;9.60;99.90
25192;DHT22;13143;50.924;5.320;2023-04-06T12:38:46;9.60;99.90
25192;DHT22;13143;50.924;5.320;2023-04-06T12:41:12;9.60;99.90
25192;DHT22;13143;50.924;5.320;2023-04-06T12:43:40;9.60;99.90
25192;DHT22;13143;50.924;5.320;2023-04-06T12:46:06;9.60;99.90
25192;DHT22;13143;50.924;5.320;2023-04-06T12:48:32;9.60;99.90
25192;DHT22;13143;50.924;5.320;2023-04-06T12:50:58;9.60;99.90
25192;DHT22;13143;50.924;5.320;2023-04-06T12:53:24;9.60;99.90
25192;DHT22;13143;50.924;5.320;2023-04-06T12:55:49;9.60;99.90
25192;DHT22;13143;50.924;5.320;2023-04-06T12:58:15;9.60;99.90
25192;DHT22;13143;50.924;5.320;2023-04-06T13:00:42;9.60;99.90
25192;DHT22;13143;50.924;5.320;2023-04-06T13:03:08;9.60;99.90
25192;DHT22;13143;50.924;5.320;2023-04-06T13:05:33;9.60;99.90
25192;DHT22;13143;50.924;5.320;2023-04-06T13:07:59;9.70;99.90
25192;DHT22;13143;50.924;5.320;2023-04-06T13:10:24;9.70;99.90
25192;DHT22;13143;50.924;5.320;2023-04-06T13:12:50;9.60;99.90
25192;DHT22;13143;50.924;5.320;2023-04-06T13:15:16;9.60;99.90
25192;DHT22;13143;50.924;5.320;2023-04-06T13:17:41;9.60;99.90
25192;DHT22;13143;50.924;5.320;2023-04-06T13:20:07;9.60;99.90
25192;DHT22;13143;50.924;5.320;2023-04-06T13:22:33;9.60;99.90
25192;DHT22;13143;50.924;5.320;2023-04-06T13:24:58;9.60;99.90
25192;DHT22;13143;50.924;5.320;2023-04-06T13:27:24;9.60;99.90
25192;DHT22;13143;50.924;5.320;2023-04-06T13:29:49;9.60;99.90
25192;DHT22;13143;50.924;5.320;2023-04-06T13:32:15;9.60;99.90
25192;DHT22;13143;50.924;5.320;2023-04-06T13:34:41;9.60;99.90
25192;DHT22;13143;50.924;5.320;2023-04-06T13:37:12;9.60;99.90
25192;DHT22;13143;50.924;5.320;2023-04-06T13:39:38;9.60;99.90
25192;DHT22;13143;50.924;5.320;2023-04-06T13:42:04;9.60;99.90
25192;DHT22;13143;50.924;5.320;2023-04-06T13:44:29;9.60;99.90
25192;DHT22;13143;50.924;5.320;2023-04-06T13:46:56;9.60;99.90
25192;DHT22;13143;50.924;5.320;2023-04-06T13:49:21;9.70;99.90
25192;DHT22;13143;50.924;5.320;2023-04-06T13:51:47;9.70;99.90
25192;DHT22;13143;50.924;5.320;2023-04-06T13:54:13;9.70;99.90
25192;DHT22;13143;50.924;5.320;2023-04-06T13:56:38;9.70;99.90
25192;DHT22;13143;50.924;5.320;2023-04-06T13:59:04;9.70;99.90
25192;DHT22;13143;50.924;5.320;2023-04-06T14:01:29;9.70;99.90
25192;DHT22;13143;50.924;5.320;2023-04-06T14:03:55;9.70;99.90
25192;DHT22;13143;50.924;5.320;2023-04-06T14:06:20;9.60;99.90
25192;DHT22;13143;50.924;5.320;2023-04-06T14:08:46;9.60;99.90
25192;DHT22;13143;50.924;5.320;2023-04-06T14:11:12;9.60;99.90
25192;DHT22;13143;50.924;5.320;2023-04-06T14:13:38;9.60;99.90
25192;DHT22;13143;50.924;5.320;2023-04-06T14:16:04;9.70;99.90
25192;DHT22;13143;50.924;5.320;2023-04-06T14:18:30;9.70;99.90
25192;DHT22;13143;50.924;5.320;2023-04-06T14:20:56;9.70;99.90
25192;DHT22;13143;50.924;5.320;2023-04-06T14:23:22;9.70;99.90
25192;DHT22;13143;50.924;5.320;2023-04-06T14:25:48;9.80;99.90
25192;DHT22;13143;50.924;5.320;2023-04-06T14:28:14;9.70;99.90
25192;DHT22;13143;50.924;5.320;2023-04-06T14:30:39;9.70;99.90
25192;DHT22;13143;50.924;5.320;2023-04-06T14:33:08;9.70;99.90
25192;DHT22;13143;50.924;5.320;2023-04-06T14:35:33;9.70;99.90
25192;DHT22;13143;50.924;5.320;2023-04-06T14:38:02;9.70;99.90
25192;DHT22;13143;50.924;5.320;2023-04-06T14:40:28;9.70;99.90
25192;DHT22;13143;50.924;5.320;2023-04-06T14:42:53;9.80;99.90
25192;DHT22;13143;50.924;5.320;2023-04-06T14:45:20;9.80;99.90
25192;DHT22;13143;50.924;5.320;2023-04-06T14:47:47;9.80;99.90
25192;DHT22;13143;50.924;5.320;2023-04-06T14:50:13;9.80;99.90
25192;DHT22;13143;50.924;5.320;2023-04-06T14:52:38;9.70;99.90
25192;DHT22;13143;50.924;5.320;2023-04-06T14:55:04;9.80;99.90
25192;DHT22;13143;50.924;5.320;2023-04-06T14:57:30;9.80;99.90
25192;DHT22;13143;50.924;5.320;2023-04-06T14:59:56;9.80;99.90
25192;DHT22;13143;50.924;5.320;2023-04-06T15:02:21;9.80;99.90
25192;DHT22;13143;50.924;5.320;2023-04-06T15:04:47;9.80;99.90
25192;DHT22;13143;50.924;5.320;2023-04-06T15:07:12;9.80;99.90
25192;DHT22;13143;50.924;5.320;2023-04-06T15:09:38;9.80;99.90
25192;DHT22;13143;50.924;5.320;2023-04-06T15:12:03;9.80;99.90
25192;DHT22;13143;50.924;5.320;2023-04-06T15:14:29;9.80;99.90
25192;DHT22;13143;50.924;5.320;2023-04-06T15:16:55;9.80;99.90
25192;DHT22;13143;50.924;5.320;2023-04-06T15:19:20;9.80;99.90
25192;DHT22;13143;50.924;5.320;2023-04-06T15:21:46;9.80;99.90
25192;DHT22;13143;50.924;5.320;2023-04-06T15:24:12;9.70;99.90
25192;DHT22;13143;50.924;5.320;2023-04-06T15:26:37;9.70;99.90
25192;DHT22;13143;50.924;5.320;2023-04-06T15:29:03;9.70;99.90
25192;DHT22;13143;50.924;5.320;2023-04-06T15:31:28;9.70;99.90
25192;DHT22;13143;50.924;5.320;2023-04-06T15:33:55;9.70;99.90
25192;DHT22;13143;50.924;5.320;2023-04-06T15:36:24;9.70;99.90
25192;DHT22;13143;50.924;5.320;2023-04-06T15:38:51;9.70;99.90